createdAt,value
2019-02-16T00:01:08.232Z,15.53
2019-02-16T00:03:37.408Z,15.93
2019-02-16T00:06:06.662Z,21.70
2019-02-16T00:08:35.895Z,15.70
2019-02-16T00:11:05.094Z,15.70
2019-02-16T00:13:34.368Z,18.07
2019-02-16T00:16:03.541Z,19.17
2019-02-16T00:18:32.690Z,19.07
2019-02-16T00:21:03.920Z,13.40
2019-02-16T00:23:32.972Z,18.03
2019-02-16T00:26:02.132Z,15.07
2019-02-16T00:28:31.358Z,17.17
2019-02-16T00:31:00.664Z,21.33
2019-02-16T00:33:29.816Z,16.17
2019-02-16T00:35:59.045Z,16.47
2019-02-16T00:38:28.211Z,14.00
2019-02-16T00:40:57.464Z,16.40
2019-02-16T00:43:26.697Z,14.90
2019-02-16T00:45:55.825Z,16.47
2019-02-16T00:48:24.972Z,20.63
2019-02-16T00:50:54.148Z,18.53
2019-02-16T00:53:23.271Z,20.63
2019-02-16T00:55:52.463Z,14.63
2019-02-16T00:58:21.611Z,17.27
2019-02-16T01:00:50.856Z,16.57
2019-02-16T01:03:19.981Z,13.10
2019-02-16T01:05:49.276Z,14.67
2019-02-16T01:08:18.464Z,19.40
2019-02-16T01:10:47.683Z,16.23
2019-02-16T01:13:18.063Z,18.20
2019-02-16T01:15:47.194Z,14.30
2019-02-16T01:18:16.440Z,12.47
2019-02-16T01:20:45.593Z,12.87
2019-02-16T01:23:14.743Z,15.17
2019-02-16T01:25:43.945Z,17.57
2019-02-16T01:28:13.117Z,17.17
2019-02-16T01:30:43.809Z,15.47
2019-02-16T01:33:14.196Z,18.13
2019-02-16T01:35:43.392Z,19.53
2019-02-16T01:38:12.649Z,14.43
2019-02-16T01:40:41.852Z,14.10
2019-02-16T01:43:11.080Z,23.30
2019-02-16T01:45:42.392Z,21.10
2019-02-16T01:48:11.532Z,16.50
2019-02-16T01:50:40.663Z,13.40
2019-02-16T01:53:09.822Z,15.17
2019-02-16T01:55:39.074Z,15.23
2019-02-16T01:58:08.340Z,14.97
2019-02-16T02:00:37.484Z,11.40
2019-02-16T02:03:06.621Z,14.90
2019-02-16T02:05:35.781Z,17.43
2019-02-16T02:08:04.908Z,18.07
2019-02-16T02:10:34.060Z,16.30
2019-02-16T02:13:03.249Z,13.17
2019-02-16T02:15:32.621Z,13.80
2019-02-16T02:18:03.289Z,15.73
2019-02-16T02:20:32.502Z,11.70
2019-02-16T02:23:01.637Z,14.10
2019-02-16T02:25:30.901Z,15.87
2019-02-16T02:28:00.033Z,13.20
2019-02-16T02:30:29.192Z,11.87
2019-02-16T02:32:58.389Z,14.63
2019-02-16T02:35:27.618Z,25.83
2019-02-16T02:37:56.847Z,12.20
2019-02-16T02:40:26.092Z,20.63
2019-02-16T02:42:57.549Z,15.77
2019-02-16T02:45:26.783Z,12.43
2019-02-16T02:47:55.894Z,13.47
2019-02-16T02:50:25.030Z,16.10
2019-02-16T02:52:56.474Z,10.37
2019-02-16T02:55:25.128Z,12.93
2019-02-16T02:57:54.270Z,11.47
2019-02-16T03:00:23.421Z,15.83
2019-02-16T03:02:52.535Z,11.83
2019-02-16T03:05:21.643Z,12.30
2019-02-16T03:07:50.883Z,14.67
2019-02-16T03:10:20.025Z,12.20
2019-02-16T03:12:49.173Z,11.63
2019-02-16T03:15:18.459Z,12.83
2019-02-16T03:17:47.621Z,12.70
2019-02-16T03:20:16.893Z,13.53
2019-02-16T03:23:17.503Z,12.87
2019-02-16T03:25:50.728Z,19.30
2019-02-16T03:28:38.672Z,13.03
2019-02-16T03:31:54.942Z,13.33
2019-02-16T03:34:28.544Z,12.17
2019-02-16T03:37:22.558Z,11.80
2019-02-16T03:39:51.733Z,11.93
2019-02-16T03:42:21.015Z,11.57
2019-02-16T03:44:50.204Z,16.83
2019-02-16T03:47:19.459Z,12.20
2019-02-16T03:49:48.597Z,12.87
2019-02-16T03:52:17.724Z,12.23
2019-02-16T03:54:47.073Z,15.57
2019-02-16T03:57:16.401Z,10.67
2019-02-16T03:59:47.256Z,13.27
2019-02-16T04:02:16.393Z,13.00
2019-02-16T04:04:45.552Z,11.90
2019-02-16T04:07:14.700Z,10.90
2019-02-16T04:09:45.035Z,14.27
2019-02-16T04:12:14.161Z,11.10
2019-02-16T04:14:43.456Z,12.17
2019-02-16T04:17:12.661Z,11.37
2019-02-16T04:19:41.895Z,11.70
2019-02-16T04:22:11.008Z,13.10
2019-02-16T04:24:40.178Z,15.90
2019-02-16T04:27:09.295Z,10.03
2019-02-16T04:29:38.441Z,11.97
2019-02-16T04:32:07.578Z,11.10
2019-02-16T04:34:36.797Z,13.00
2019-02-16T04:37:05.960Z,11.07
2019-02-16T04:39:35.100Z,10.80
2019-02-16T04:42:04.293Z,12.07
2019-02-16T04:44:33.515Z,13.00
2019-02-16T04:47:02.648Z,10.57
2019-02-16T04:49:31.783Z,20.00
2019-02-16T04:52:00.903Z,12.63
2019-02-16T04:54:30.121Z,13.10
2019-02-16T04:56:59.265Z,11.53
2019-02-16T04:59:28.493Z,9.90
2019-02-16T05:01:57.646Z,10.50
2019-02-16T05:04:26.733Z,9.80
2019-02-16T05:06:55.948Z,9.20
2019-02-16T05:09:25.092Z,12.37
2019-02-16T05:11:54.265Z,10.60
2019-02-16T05:14:23.554Z,15.17
2019-02-16T05:16:52.691Z,12.10
2019-02-16T05:19:21.928Z,12.97
2019-02-16T05:21:51.186Z,13.30
2019-02-16T05:24:20.328Z,11.87
2019-02-16T05:26:50.831Z,13.33
2019-02-16T05:29:19.961Z,14.37
2019-02-16T05:31:49.106Z,14.77
2019-02-16T05:34:20.096Z,15.60
2019-02-16T05:36:49.253Z,12.00
2019-02-16T05:39:18.372Z,10.77
2019-02-16T05:41:47.598Z,12.27
2019-02-16T05:44:16.757Z,16.43
2019-02-16T05:46:46.036Z,12.60
2019-02-16T05:49:15.214Z,18.43
2019-02-16T05:51:44.545Z,11.27
2019-02-16T05:54:13.720Z,12.67
2019-02-16T05:56:42.906Z,12.80
2019-02-16T05:59:13.179Z,14.00
2019-02-16T06:01:42.409Z,13.37
2019-02-16T06:04:11.546Z,9.43
2019-02-16T06:06:40.701Z,14.30
2019-02-16T06:09:09.933Z,13.83
2019-02-16T06:11:39.084Z,13.00
2019-02-16T06:14:10.173Z,14.80
2019-02-16T06:16:39.397Z,11.10
2019-02-16T06:19:08.556Z,14.00
2019-02-16T06:21:37.781Z,11.03
2019-02-16T06:24:07.002Z,13.73
2019-02-16T06:26:36.342Z,13.20
2019-02-16T06:29:05.571Z,9.53
2019-02-16T06:31:34.724Z,11.03
2019-02-16T06:34:03.883Z,11.73
2019-02-16T06:36:37.231Z,11.93
2019-02-16T06:39:08.669Z,10.60
2019-02-16T06:41:37.959Z,11.13
2019-02-16T06:44:07.101Z,14.17
2019-02-16T06:46:36.249Z,11.40
2019-02-16T06:49:05.424Z,12.00
2019-02-16T06:51:34.682Z,9.20
2019-02-16T06:54:03.875Z,13.40
2019-02-16T06:56:54.864Z,12.40
2019-02-16T06:59:24.079Z,10.37
2019-02-16T07:01:53.342Z,14.70
2019-02-16T07:04:22.488Z,9.57
2019-02-16T07:06:51.747Z,12.03
2019-02-16T07:09:20.894Z,11.03
2019-02-16T07:11:50.024Z,12.00
2019-02-16T07:14:19.317Z,11.40
2019-02-16T07:17:07.524Z,12.57
2019-02-16T07:19:44.445Z,12.53
2019-02-16T07:22:13.625Z,10.83
2019-02-16T07:24:42.853Z,16.60
2019-02-16T07:27:12.033Z,10.50
2019-02-16T07:29:41.287Z,15.73
2019-02-16T07:32:10.601Z,12.10
2019-02-16T07:34:39.884Z,11.20
2019-02-16T07:37:09.132Z,12.00
2019-02-16T07:39:39.813Z,11.57
2019-02-16T07:42:09.032Z,12.93
2019-02-16T07:44:44.901Z,13.23
2019-02-16T07:47:42.519Z,13.73
2019-02-16T07:50:33.491Z,12.83
2019-02-16T07:53:31.141Z,14.00
2019-02-16T07:56:12.894Z,12.60
2019-02-16T07:59:13.539Z,18.20
2019-02-16T08:01:51.666Z,25.43
2019-02-16T08:04:36.660Z,14.70
2019-02-16T08:07:23.534Z,9.50
2019-02-16T08:10:27.975Z,11.30
2019-02-16T08:13:06.263Z,18.43
2019-02-16T08:15:46.055Z,14.20
2019-02-16T08:18:34.252Z,14.40
2019-02-16T08:21:37.688Z,10.23
2019-02-16T08:24:24.990Z,11.73
2019-02-16T08:27:20.752Z,11.10
2019-02-16T08:30:01.365Z,9.23
2019-02-16T08:32:48.463Z,16.07
2019-02-16T08:35:39.681Z,14.60
2019-02-16T08:38:33.763Z,11.60
2019-02-16T08:41:24.772Z,11.57
2019-02-16T08:44:12.974Z,12.27
2019-02-16T08:46:52.845Z,15.67
2019-02-16T08:49:29.675Z,14.00
2019-02-16T08:52:08.485Z,10.57
2019-02-16T08:54:53.932Z,22.30
2019-02-16T08:57:45.202Z,17.90
2019-02-16T09:00:48.751Z,13.50
2019-02-16T09:03:35.242Z,17.13
2019-02-16T09:06:22.152Z,14.00
2019-02-16T09:09:08.995Z,15.23
2019-02-16T09:11:56.081Z,15.10
2019-02-16T09:14:42.780Z,18.83
2019-02-16T09:17:36.875Z,18.77
2019-02-16T09:20:27.621Z,14.83
2019-02-16T09:23:14.788Z,13.87
2019-02-16T09:26:11.982Z,15.97
2019-02-16T09:29:00.234Z,16.50
2019-02-16T09:31:57.392Z,16.43
2019-02-16T09:34:51.549Z,16.80
2019-02-16T09:37:51.820Z,18.77
2019-02-16T09:40:38.764Z,18.47
2019-02-16T09:43:15.895Z,17.33
2019-02-16T09:45:54.563Z,15.70
2019-02-16T09:48:50.268Z,20.83
2019-02-16T09:51:41.468Z,17.23
2019-02-16T09:54:21.608Z,17.37
2019-02-16T09:57:10.153Z,13.00
2019-02-16T09:59:58.398Z,17.20
2019-02-16T10:02:39.978Z,17.70
2019-02-16T10:05:28.252Z,15.80
2019-02-16T10:08:16.538Z,16.17
2019-02-16T10:11:08.861Z,13.80
2019-02-16T10:14:03.013Z,14.50
2019-02-16T10:16:47.462Z,13.20
2019-02-16T10:19:24.684Z,20.47
2019-02-16T10:22:15.603Z,16.27
2019-02-16T10:24:58.249Z,17.03
2019-02-16T10:27:49.717Z,15.70
2019-02-16T10:30:37.943Z,16.07
2019-02-16T10:33:17.023Z,10.87
2019-02-16T10:35:59.228Z,11.47
2019-02-16T10:38:50.209Z,13.23
2019-02-16T10:41:34.352Z,13.70
2019-02-16T10:44:31.894Z,12.07
2019-02-16T10:47:24.813Z,16.70
2019-02-16T10:50:22.177Z,13.03
2019-02-16T10:53:13.371Z,12.60
2019-02-16T10:56:10.673Z,12.13
2019-02-16T10:59:14.182Z,18.67
2019-02-16T11:02:11.421Z,13.13
2019-02-16T11:04:56.850Z,12.43
2019-02-16T11:07:44.309Z,17.87
2019-02-16T11:10:47.866Z,11.53
2019-02-16T11:13:26.916Z,17.23
2019-02-16T11:16:14.077Z,14.00
2019-02-16T11:18:56.607Z,14.63
2019-02-16T11:21:37.484Z,15.87
2019-02-16T11:24:35.664Z,14.90
2019-02-16T11:27:22.419Z,11.00
2019-02-16T11:30:15.500Z,11.53
2019-02-16T11:33:05.355Z,15.90
2019-02-16T11:35:56.475Z,13.60
2019-02-16T11:38:39.268Z,15.40
2019-02-16T11:41:19.425Z,13.10
2019-02-16T11:44:13.857Z,16.73
2019-02-16T11:47:14.331Z,16.80
2019-02-16T11:50:08.446Z,17.80
2019-02-16T11:52:49.646Z,15.47
2019-02-16T11:55:36.493Z,13.80
2019-02-16T11:58:24.722Z,18.57
2019-02-16T12:01:03.419Z,13.63
2019-02-16T12:04:07.026Z,14.30
2019-02-16T12:06:53.626Z,15.70
2019-02-16T12:09:30.699Z,13.47
2019-02-16T12:12:17.492Z,18.23
2019-02-16T12:15:09.949Z,22.07
2019-02-16T12:18:04.185Z,13.90
2019-02-16T12:21:01.273Z,13.80
2019-02-16T12:23:52.383Z,17.10
2019-02-16T12:26:57.617Z,17.40
2019-02-16T12:29:41.943Z,20.93
2019-02-16T12:32:33.296Z,15.50
2019-02-16T12:35:20.249Z,13.40
2019-02-16T12:37:57.614Z,18.37
2019-02-16T12:40:54.945Z,15.13
2019-02-16T12:43:41.926Z,19.37
2019-02-16T12:46:45.906Z,15.50
2019-02-16T12:49:27.667Z,18.50
2019-02-16T12:52:27.972Z,16.20
2019-02-16T12:55:34.576Z,12.90
2019-02-16T12:58:15.455Z,16.47
2019-02-16T13:01:03.922Z,13.97
2019-02-16T13:03:52.158Z,15.10
2019-02-16T13:06:58.843Z,15.57
2019-02-16T13:09:46.083Z,16.70
2019-02-16T13:12:31.285Z,16.73
2019-02-16T13:15:09.116Z,15.70
2019-02-16T13:17:55.897Z,12.80
2019-02-16T13:20:41.157Z,16.33
2019-02-16T13:23:18.245Z,14.67
2019-02-16T13:26:15.531Z,15.17
2019-02-16T13:29:06.077Z,16.33
2019-02-16T13:32:12.559Z,12.70
2019-02-16T13:35:12.878Z,11.53
2019-02-16T13:37:52.004Z,13.57
2019-02-16T13:40:49.594Z,15.63
2019-02-16T13:43:37.776Z,10.30
2019-02-16T13:46:15.267Z,11.80
2019-02-16T13:48:59.363Z,13.47
2019-02-16T13:51:37.497Z,13.10
2019-02-16T13:54:32.191Z,13.17
2019-02-16T13:57:08.141Z,11.93
2019-02-16T14:00:03.536Z,17.33
2019-02-16T14:02:45.713Z,18.60
2019-02-16T14:05:33.952Z,15.40
2019-02-16T14:08:16.897Z,13.60
2019-02-16T14:11:17.445Z,15.93
2019-02-16T14:14:00.613Z,15.10
2019-02-16T14:16:47.045Z,18.50
2019-02-16T14:19:16.337Z,17.60
2019-02-16T14:21:45.529Z,14.40
2019-02-16T14:24:15.011Z,12.97
2019-02-16T14:26:44.190Z,19.00
2019-02-16T14:29:13.337Z,15.67
2019-02-16T14:31:42.629Z,16.87
2019-02-16T14:34:11.949Z,16.13
2019-02-16T14:36:42.182Z,13.20
2019-02-16T14:39:14.043Z,15.47
2019-02-16T14:41:43.295Z,13.70
2019-02-16T14:44:12.532Z,13.00
2019-02-16T14:46:41.787Z,12.63
2019-02-16T14:49:11.088Z,19.93
2019-02-16T14:51:40.312Z,13.17
2019-02-16T14:54:09.577Z,12.43
2019-02-16T14:56:38.839Z,13.07
2019-02-16T14:59:08.183Z,12.83
2019-02-16T15:01:37.459Z,12.00
2019-02-16T15:04:06.698Z,16.33
2019-02-16T15:06:36.564Z,18.63
2019-02-16T15:09:06.491Z,14.27
2019-02-16T15:11:35.821Z,16.50
2019-02-16T15:14:05.091Z,17.83
2019-02-16T15:16:34.373Z,14.27
2019-02-16T15:19:03.560Z,13.67
2019-02-16T15:21:32.935Z,15.73
2019-02-16T15:24:02.232Z,17.37
2019-02-16T15:26:31.493Z,14.30
2019-02-16T15:29:00.794Z,16.80
2019-02-16T15:31:30.186Z,19.27
2019-02-16T15:33:59.473Z,16.37
2019-02-16T15:36:28.778Z,21.00
2019-02-16T15:38:58.061Z,24.33
2019-02-16T15:41:27.282Z,21.03
2019-02-16T15:43:56.640Z,22.23
2019-02-16T15:46:25.864Z,20.37
2019-02-16T15:48:55.169Z,19.60
2019-02-16T15:51:24.418Z,31.37
2019-02-16T15:53:53.641Z,24.13
2019-02-16T15:56:22.938Z,21.87
2019-02-16T15:58:52.135Z,18.67
2019-02-16T16:01:21.308Z,27.70
2019-02-16T16:03:50.536Z,37.57
2019-02-16T16:06:19.796Z,20.60
2019-02-16T16:09:00.178Z,22.77
2019-02-16T16:11:39.191Z,17.60
2019-02-16T16:14:30.164Z,18.50
2019-02-16T16:17:07.081Z,22.80
2019-02-16T16:20:01.122Z,20.33
2019-02-16T16:22:58.475Z,22.30
2019-02-16T16:25:39.212Z,21.80
2019-02-16T16:28:22.775Z,18.23
2019-02-16T16:31:13.950Z,20.90
2019-02-16T16:34:07.937Z,25.97
2019-02-16T16:36:59.247Z,29.20
2019-02-16T16:39:46.566Z,30.80
2019-02-16T16:42:37.805Z,29.73
2019-02-16T16:45:18.662Z,23.47
2019-02-16T16:48:04.739Z,30.30
2019-02-16T16:50:42.457Z,26.43
2019-02-16T16:53:30.700Z,26.47
2019-02-16T16:56:28.366Z,22.20
2019-02-16T16:59:10.065Z,25.00
2019-02-16T17:02:04.328Z,33.53
2019-02-16T17:04:52.664Z,28.73
2019-02-16T17:07:47.213Z,38.70
2019-02-16T17:10:42.277Z,24.30
2019-02-16T17:13:30.503Z,22.37
2019-02-16T17:16:09.740Z,27.40
2019-02-16T17:18:56.799Z,27.80
2019-02-16T17:21:44.043Z,28.20
2019-02-16T17:24:30.909Z,29.70
2019-02-16T17:27:08.264Z,26.63
2019-02-16T17:29:54.332Z,32.97
2019-02-16T17:32:41.315Z,29.10
2019-02-16T17:35:33.359Z,28.90
2019-02-16T17:38:21.586Z,25.77
2019-02-16T17:41:08.749Z,24.73
2019-02-16T17:43:48.689Z,24.20
2019-02-16T17:46:38.336Z,28.50
2019-02-16T17:49:16.244Z,31.03
2019-02-16T17:52:22.902Z,37.93
2019-02-16T17:55:26.454Z,33.77
2019-02-16T17:58:23.757Z,31.07
2019-02-16T18:01:02.373Z,31.43
2019-02-16T18:04:05.776Z,30.70
2019-02-16T18:06:59.997Z,38.17
2019-02-16T18:09:46.816Z,32.00
2019-02-16T18:12:38.969Z,38.47
2019-02-16T18:15:36.769Z,30.57
2019-02-16T18:18:15.289Z,34.67
2019-02-16T18:21:02.572Z,32.63
2019-02-16T18:23:50.802Z,33.10
2019-02-16T18:26:42.081Z,26.57
2019-02-16T18:29:48.952Z,30.13
2019-02-16T18:32:46.385Z,23.33
2019-02-16T18:35:26.667Z,37.30
2019-02-16T18:38:13.553Z,32.30
2019-02-16T18:41:13.802Z,32.57
2019-02-16T18:44:14.397Z,31.03
2019-02-16T18:47:01.330Z,23.27
2019-02-16T18:49:49.603Z,22.95
2019-02-16T18:52:43.920Z,22.90
2019-02-16T18:55:32.197Z,24.77
2019-02-16T18:58:11.548Z,27.40
2019-02-16T19:00:59.819Z,24.83
2019-02-16T19:03:52.304Z,32.40
2019-02-16T19:06:36.792Z,29.47
2019-02-16T19:09:31.401Z,30.07
2019-02-16T19:12:19.786Z,31.10
2019-02-16T19:15:06.880Z,31.53
2019-02-16T19:17:41.597Z,31.77
2019-02-16T19:20:28.583Z,27.80
2019-02-16T19:23:26.089Z,27.03
2019-02-16T19:26:23.349Z,25.20
2019-02-16T19:29:04.157Z,26.87
2019-02-16T19:31:42.597Z,20.87
2019-02-16T19:34:29.676Z,22.03
2019-02-16T19:37:13.253Z,24.53
2019-02-16T19:40:19.873Z,23.67
2019-02-16T19:43:07.089Z,20.30
2019-02-16T19:45:55.278Z,26.20
2019-02-16T19:48:31.456Z,20.20
2019-02-16T19:51:25.786Z,18.53
2019-02-16T19:54:09.392Z,22.70
2019-02-16T19:57:00.985Z,19.73
2019-02-16T19:59:38.826Z,20.10
2019-02-16T20:02:29.977Z,22.53
2019-02-16T20:05:27.347Z,26.37
2019-02-16T20:08:33.680Z,24.70
2019-02-16T20:11:27.721Z,24.33
2019-02-16T20:14:18.676Z,21.23
2019-02-16T20:17:09.671Z,27.33
2019-02-16T20:19:44.693Z,26.43
2019-02-16T20:22:27.130Z,18.80
2019-02-16T20:25:21.075Z,21.20
2019-02-16T20:28:07.925Z,22.37
2019-02-16T20:31:01.848Z,24.30
2019-02-16T20:33:47.126Z,27.60
2019-02-16T20:36:41.548Z,20.90
2019-02-16T20:39:35.850Z,25.20
2019-02-16T20:42:24.137Z,19.53
2019-02-16T20:45:15.235Z,21.43
2019-02-16T20:47:58.829Z,20.23
2019-02-16T20:50:59.457Z,21.77
2019-02-16T20:53:59.486Z,24.97
2019-02-16T20:56:45.956Z,21.03
2019-02-16T20:59:30.699Z,27.57
2019-02-16T21:02:25.734Z,24.93
2019-02-16T21:05:04.418Z,24.87
2019-02-16T21:08:11.066Z,23.73
2019-02-16T21:10:57.776Z,23.20
2019-02-16T21:13:44.522Z,20.60
2019-02-16T21:16:41.201Z,21.53
2019-02-16T21:19:28.300Z,21.63
2019-02-16T21:22:12.220Z,19.97
2019-02-16T21:24:56.520Z,28.10
2019-02-16T21:27:33.621Z,19.83
2019-02-16T21:30:28.076Z,23.43
2019-02-16T21:33:10.160Z,21.93
2019-02-16T21:35:57.000Z,31.63
2019-02-16T21:39:03.023Z,23.60
2019-02-16T21:41:46.020Z,23.40
2019-02-16T21:44:34.208Z,24.50
2019-02-16T21:47:30.148Z,22.00
2019-02-16T21:50:21.433Z,26.40
2019-02-16T21:53:08.398Z,47.10
2019-02-16T21:55:55.571Z,19.13
2019-02-16T21:58:40.520Z,19.53
2019-02-16T22:01:16.172Z,21.10
2019-02-16T22:04:22.761Z,22.70
2019-02-16T22:07:08.571Z,23.10
2019-02-16T22:09:56.735Z,25.83
2019-02-16T22:12:41.046Z,26.97
2019-02-16T22:15:10.614Z,28.43
2019-02-16T22:17:39.867Z,23.53
2019-02-16T22:20:10.408Z,23.47
2019-02-16T22:22:39.688Z,25.33
2019-02-16T22:25:09.446Z,31.57
2019-02-16T22:27:38.685Z,24.83
2019-02-16T22:30:08.854Z,26.00
2019-02-16T22:32:38.045Z,29.83
2019-02-16T22:35:07.407Z,26.13
2019-02-16T22:37:36.677Z,28.07
2019-02-16T22:40:06.105Z,29.43
2019-02-16T22:42:35.392Z,26.30
2019-02-16T22:45:05.365Z,28.40
2019-02-16T22:47:36.201Z,20.70
2019-02-16T22:50:06.977Z,27.50
2019-02-16T22:52:36.224Z,30.10
2019-02-16T22:55:05.788Z,23.87
2019-02-16T22:57:34.957Z,26.20
2019-02-16T23:00:06.209Z,27.17
2019-02-16T23:02:35.522Z,23.57
2019-02-16T23:05:04.947Z,24.77
2019-02-16T23:07:34.192Z,33.50
2019-02-16T23:10:05.073Z,23.77
2019-02-16T23:12:34.380Z,22.23
2019-02-16T23:15:03.635Z,25.93
2019-02-16T23:17:32.997Z,23.80
2019-02-16T23:20:02.187Z,25.23
2019-02-16T23:22:31.381Z,28.13
2019-02-16T23:25:00.646Z,23.33
2019-02-16T23:27:29.923Z,28.17
2019-02-16T23:29:59.249Z,26.43
2019-02-16T23:32:28.606Z,23.73
2019-02-16T23:34:57.888Z,25.13
2019-02-16T23:37:27.222Z,26.07
2019-02-16T23:39:56.560Z,28.43
2019-02-16T23:42:25.783Z,37.17
2019-02-16T23:44:55.143Z,23.83
2019-02-16T23:47:25.591Z,30.03
2019-02-16T23:49:55.137Z,30.67
2019-02-16T23:52:25.157Z,24.60
2019-02-16T23:54:54.630Z,27.23
2019-02-16T23:57:23.877Z,32.90
2019-02-16T23:59:53.187Z,27.50
